Terminal Aerodrome Forecast
Issued by NWS Lubbock, TX

Home | Current Version | Previous Version | Text Only | Print | Product List | Glossary On
Versions: 1 2 3 4 5 6 7 8 9 10 11 12 13 14 15 16 17 18 19 20 21 22 23 24 25
000
FTUS44 KLUB 251255 AAA
TAFLBB
TAF AMD
KLBB 251255Z 2513/2612 22015KT P6SM -RA SCT010 BKN100
     FM251400 20011KT P6SM -TSRA SCT015CB BKN100
      TEMPO 2514/2516 2SM TSRA OVC010CB
     FM251600 18013KT P6SM SCT030 BKN150
     FM260100 19009KT P6SM SCT100=

USA.gov is the U.S. government's official web portal to all federal, state and local government web resources and services.